<?xml version="1.0" encoding="UTF-8" standalone="no" ?>
<gpx xmlns="http://www.topografix.com/GPX/1/1" xmlns:xsi="http://www.w3.org/2001/XMLSchema-instance" xsi:schemaLocation="http://www.topografix.com/GPX/1/1 http://www.topografix.com/GPX/1/1/gpx.xsd" version="1.1" creator="VisuGPX - https://www.visugpx.com">
  <metadata>
    <name>ballade a Blettrans JURA</name>
    <desc><![CDATA[petite ballade a Bletterans avec ma chienne]]></desc>
  </metadata>
  <trk>
    <name><![CDATA[BLETRANS3 16:49:40]]></name>
    <trkseg>
      <trkpt lat="46.71884" lon="5.40954">
        <ele>221.72</ele>
        <time>2013-02-21T13:55:58Z</time>
      </trkpt>
      <trkpt lat="46.71876" lon="5.40968">
        <ele>214.99</ele>
        <time>2013-02-21T13:56:18Z</time>
      </trkpt>
      <trkpt lat="46.71879" lon="5.40967">
        <ele>215.95</ele>
        <time>2013-02-21T13:56:42Z</time>
      </trkpt>
      <trkpt lat="46.71873" lon="5.4097">
        <ele>204.42</ele>
        <time>2013-02-21T13:57:17Z</time>
      </trkpt>
      <trkpt lat="46.71873" lon="5.40969">
        <ele>203.46</ele>
        <time>2013-02-21T13:57:46Z</time>
      </trkpt>
      <trkpt lat="46.71874" lon="5.4097">
        <ele>203.46</ele>
        <time>2013-02-21T13:58:13Z</time>
      </trkpt>
      <trkpt lat="46.71874" lon="5.40971">
        <ele>200.09</ele>
        <time>2013-02-21T13:58:27Z</time>
      </trkpt>
      <trkpt lat="46.71877" lon="5.40977">
        <ele>200.57</ele>
        <time>2013-02-21T13:58:43Z</time>
      </trkpt>
      <trkpt lat="46.7188" lon="5.40981">
        <ele>199.13</ele>
        <time>2013-02-21T13:59:12Z</time>
      </trkpt>
      <trkpt lat="46.7188" lon="5.40981">
        <ele>198.65</ele>
        <time>2013-02-21T13:59:32Z</time>
      </trkpt>
      <trkpt lat="46.71879" lon="5.40984">
        <ele>197.69</ele>
        <time>2013-02-21T13:59:49Z</time>
      </trkpt>
      <trkpt lat="46.71884" lon="5.41004">
        <ele>192.4</ele>
        <time>2013-02-21T14:00:05Z</time>
      </trkpt>
      <trkpt lat="46.71884" lon="5.41022">
        <ele>191.92</ele>
        <time>2013-02-21T14:00:19Z</time>
      </trkpt>
      <trkpt lat="46.71882" lon="5.41026">
        <ele>191.92</ele>
        <time>2013-02-21T14:00:24Z</time>
      </trkpt>
      <trkpt lat="46.71872" lon="5.41038">
        <ele>192.88</ele>
        <time>2013-02-21T14:00:38Z</time>
      </trkpt>
      <trkpt lat="46.71867" lon="5.41047">
        <ele>194.32</ele>
        <time>2013-02-21T14:00:54Z</time>
      </trkpt>
      <trkpt lat="46.7186" lon="5.41055">
        <ele>191.92</ele>
        <time>2013-02-21T14:01:08Z</time>
      </trkpt>
      <trkpt lat="46.71852" lon="5.41066">
        <ele>190.96</ele>
        <time>2013-02-21T14:01:21Z</time>
      </trkpt>
      <trkpt lat="46.71844" lon="5.41075">
        <ele>190.48</ele>
        <time>2013-02-21T14:01:34Z</time>
      </trkpt>
      <trkpt lat="46.71825" lon="5.41094">
        <ele>186.63</ele>
        <time>2013-02-21T14:01:50Z</time>
      </trkpt>
      <trkpt lat="46.71813" lon="5.4111">
        <ele>187.11</ele>
        <time>2013-02-21T14:02:04Z</time>
      </trkpt>
      <trkpt lat="46.71807" lon="5.41121">
        <ele>190</ele>
        <time>2013-02-21T14:02:22Z</time>
      </trkpt>
      <trkpt lat="46.71801" lon="5.41131">
        <ele>192.88</ele>
        <time>2013-02-21T14:02:34Z</time>
      </trkpt>
      <trkpt lat="46.71798" lon="5.41134">
        <ele>193.84</ele>
        <time>2013-02-21T14:02:40Z</time>
      </trkpt>
      <trkpt lat="46.71787" lon="5.41146">
        <ele>190.96</ele>
        <time>2013-02-21T14:02:53Z</time>
      </trkpt>
      <trkpt lat="46.71765" lon="5.4117">
        <ele>185.19</ele>
        <time>2013-02-21T14:03:13Z</time>
      </trkpt>
      <trkpt lat="46.71753" lon="5.4118">
        <ele>185.67</ele>
        <time>2013-02-21T14:03:30Z</time>
      </trkpt>
      <trkpt lat="46.71742" lon="5.41194">
        <ele>187.11</ele>
        <time>2013-02-21T14:03:46Z</time>
      </trkpt>
      <trkpt lat="46.71737" lon="5.41201">
        <ele>187.11</ele>
        <time>2013-02-21T14:04:00Z</time>
      </trkpt>
      <trkpt lat="46.71716" lon="5.4123">
        <ele>189.52</ele>
        <time>2013-02-21T14:04:17Z</time>
      </trkpt>
      <trkpt lat="46.71708" lon="5.41239">
        <ele>190</ele>
        <time>2013-02-21T14:04:33Z</time>
      </trkpt>
      <trkpt lat="46.7168" lon="5.41271">
        <ele>190.96</ele>
        <time>2013-02-21T14:04:50Z</time>
      </trkpt>
      <trkpt lat="46.71669" lon="5.41284">
        <ele>191.44</ele>
        <time>2013-02-21T14:05:03Z</time>
      </trkpt>
      <trkpt lat="46.71653" lon="5.41302">
        <ele>190</ele>
        <time>2013-02-21T14:05:18Z</time>
      </trkpt>
      <trkpt lat="46.71638" lon="5.41321">
        <ele>189.52</ele>
        <time>2013-02-21T14:05:34Z</time>
      </trkpt>
      <trkpt lat="46.71627" lon="5.41337">
        <ele>193.84</ele>
        <time>2013-02-21T14:05:52Z</time>
      </trkpt>
      <trkpt lat="46.71622" lon="5.41343">
        <ele>194.8</ele>
        <time>2013-02-21T14:06:06Z</time>
      </trkpt>
      <trkpt lat="46.71624" lon="5.41344">
        <ele>199.13</ele>
        <time>2013-02-21T14:06:29Z</time>
      </trkpt>
      <trkpt lat="46.71624" lon="5.41345">
        <ele>202.01</ele>
        <time>2013-02-21T14:06:54Z</time>
      </trkpt>
      <trkpt lat="46.71615" lon="5.41356">
        <ele>202.01</ele>
        <time>2013-02-21T14:07:07Z</time>
      </trkpt>
      <trkpt lat="46.71599" lon="5.41373">
        <ele>199.61</ele>
        <time>2013-02-21T14:07:21Z</time>
      </trkpt>
      <trkpt lat="46.71586" lon="5.41387">
        <ele>198.17</ele>
        <time>2013-02-21T14:07:37Z</time>
      </trkpt>
      <trkpt lat="46.71582" lon="5.41392">
        <ele>198.65</ele>
        <time>2013-02-21T14:07:51Z</time>
      </trkpt>
      <trkpt lat="46.71565" lon="5.4141">
        <ele>192.4</ele>
        <time>2013-02-21T14:08:08Z</time>
      </trkpt>
      <trkpt lat="46.71546" lon="5.41443">
        <ele>186.15</ele>
        <time>2013-02-21T14:08:26Z</time>
      </trkpt>
      <trkpt lat="46.71542" lon="5.41466">
        <ele>187.59</ele>
        <time>2013-02-21T14:08:38Z</time>
      </trkpt>
      <trkpt lat="46.7154" lon="5.41499">
        <ele>190.48</ele>
        <time>2013-02-21T14:08:53Z</time>
      </trkpt>
      <trkpt lat="46.7154" lon="5.41517">
        <ele>191.92</ele>
        <time>2013-02-21T14:09:05Z</time>
      </trkpt>
      <trkpt lat="46.71541" lon="5.4153">
        <ele>193.84</ele>
        <time>2013-02-21T14:09:19Z</time>
      </trkpt>
      <trkpt lat="46.71541" lon="5.41535">
        <ele>196.25</ele>
        <time>2013-02-21T14:09:33Z</time>
      </trkpt>
      <trkpt lat="46.7154" lon="5.41554">
        <ele>195.28</ele>
        <time>2013-02-21T14:09:45Z</time>
      </trkpt>
      <trkpt lat="46.71536" lon="5.41575">
        <ele>195.28</ele>
        <time>2013-02-21T14:09:58Z</time>
      </trkpt>
      <trkpt lat="46.71534" lon="5.416">
        <ele>197.21</ele>
        <time>2013-02-21T14:10:12Z</time>
      </trkpt>
      <trkpt lat="46.71534" lon="5.41616">
        <ele>196.73</ele>
        <time>2013-02-21T14:10:26Z</time>
      </trkpt>
      <trkpt lat="46.71535" lon="5.41633">
        <ele>193.84</ele>
        <time>2013-02-21T14:10:43Z</time>
      </trkpt>
      <trkpt lat="46.71531" lon="5.41659">
        <ele>192.4</ele>
        <time>2013-02-21T14:10:59Z</time>
      </trkpt>
      <trkpt lat="46.71527" lon="5.41691">
        <ele>190.96</ele>
        <time>2013-02-21T14:11:16Z</time>
      </trkpt>
      <trkpt lat="46.71525" lon="5.41714">
        <ele>191.44</ele>
        <time>2013-02-21T14:11:30Z</time>
      </trkpt>
      <trkpt lat="46.71525" lon="5.41716">
        <ele>191.44</ele>
        <time>2013-02-21T14:11:31Z</time>
      </trkpt>
      <trkpt lat="46.71524" lon="5.41719">
        <ele>191.92</ele>
        <time>2013-02-21T14:11:33Z</time>
      </trkpt>
      <trkpt lat="46.7152" lon="5.41745">
        <ele>190.48</ele>
        <time>2013-02-21T14:11:48Z</time>
      </trkpt>
      <trkpt lat="46.71521" lon="5.41748">
        <ele>193.36</ele>
        <time>2013-02-21T14:12:02Z</time>
      </trkpt>
      <trkpt lat="46.71526" lon="5.41749">
        <ele>197.69</ele>
        <time>2013-02-21T14:12:25Z</time>
      </trkpt>
      <trkpt lat="46.71527" lon="5.41752">
        <ele>199.13</ele>
        <time>2013-02-21T14:12:38Z</time>
      </trkpt>
      <trkpt lat="46.71525" lon="5.41771">
        <ele>198.17</ele>
        <time>2013-02-21T14:12:51Z</time>
      </trkpt>
      <trkpt lat="46.71524" lon="5.41797">
        <ele>197.69</ele>
        <time>2013-02-21T14:13:06Z</time>
      </trkpt>
      <trkpt lat="46.71528" lon="5.41813">
        <ele>193.36</ele>
        <time>2013-02-21T14:13:18Z</time>
      </trkpt>
      <trkpt lat="46.7153" lon="5.41818">
        <ele>192.4</ele>
        <time>2013-02-21T14:13:22Z</time>
      </trkpt>
      <trkpt lat="46.71537" lon="5.41826">
        <ele>190</ele>
        <time>2013-02-21T14:13:34Z</time>
      </trkpt>
      <trkpt lat="46.71543" lon="5.41828">
        <ele>189.52</ele>
        <time>2013-02-21T14:13:44Z</time>
      </trkpt>
      <trkpt lat="46.71552" lon="5.41829">
        <ele>189.52</ele>
        <time>2013-02-21T14:13:56Z</time>
      </trkpt>
      <trkpt lat="46.71566" lon="5.41829">
        <ele>187.59</ele>
        <time>2013-02-21T14:14:11Z</time>
      </trkpt>
      <trkpt lat="46.71581" lon="5.41829">
        <ele>187.59</ele>
        <time>2013-02-21T14:14:23Z</time>
      </trkpt>
      <trkpt lat="46.71584" lon="5.4183">
        <ele>187.59</ele>
        <time>2013-02-21T14:14:25Z</time>
      </trkpt>
      <trkpt lat="46.71596" lon="5.41829">
        <ele>189.04</ele>
        <time>2013-02-21T14:14:40Z</time>
      </trkpt>
      <trkpt lat="46.71614" lon="5.41831">
        <ele>190.48</ele>
        <time>2013-02-21T14:14:52Z</time>
      </trkpt>
      <trkpt lat="46.71626" lon="5.41831">
        <ele>192.4</ele>
        <time>2013-02-21T14:15:04Z</time>
      </trkpt>
      <trkpt lat="46.71635" lon="5.41831">
        <ele>192.4</ele>
        <time>2013-02-21T14:15:14Z</time>
      </trkpt>
      <trkpt lat="46.71646" lon="5.41833">
        <ele>191.92</ele>
        <time>2013-02-21T14:15:28Z</time>
      </trkpt>
      <trkpt lat="46.71663" lon="5.41834">
        <ele>193.36</ele>
        <time>2013-02-21T14:15:42Z</time>
      </trkpt>
      <trkpt lat="46.71677" lon="5.41833">
        <ele>194.32</ele>
        <time>2013-02-21T14:15:54Z</time>
      </trkpt>
      <trkpt lat="46.71683" lon="5.41832">
        <ele>195.28</ele>
        <time>2013-02-21T14:16:07Z</time>
      </trkpt>
      <trkpt lat="46.71689" lon="5.41831">
        <ele>196.25</ele>
        <time>2013-02-21T14:16:19Z</time>
      </trkpt>
      <trkpt lat="46.71705" lon="5.41833">
        <ele>196.73</ele>
        <time>2013-02-21T14:16:31Z</time>
      </trkpt>
      <trkpt lat="46.71714" lon="5.41832">
        <ele>194.8</ele>
        <time>2013-02-21T14:16:41Z</time>
      </trkpt>
      <trkpt lat="46.7173" lon="5.41833">
        <ele>192.88</ele>
        <time>2013-02-21T14:16:55Z</time>
      </trkpt>
      <trkpt lat="46.71747" lon="5.41833">
        <ele>192.88</ele>
        <time>2013-02-21T14:17:09Z</time>
      </trkpt>
      <trkpt lat="46.71757" lon="5.41834">
        <ele>193.84</ele>
        <time>2013-02-21T14:17:22Z</time>
      </trkpt>
      <trkpt lat="46.71765" lon="5.41834">
        <ele>194.32</ele>
        <time>2013-02-21T14:17:34Z</time>
      </trkpt>
      <trkpt lat="46.71785" lon="5.41838">
        <ele>195.28</ele>
        <time>2013-02-21T14:17:50Z</time>
      </trkpt>
      <trkpt lat="46.71794" lon="5.41856">
        <ele>193.36</ele>
        <time>2013-02-21T14:18:02Z</time>
      </trkpt>
      <trkpt lat="46.71798" lon="5.41881">
        <ele>192.4</ele>
        <time>2013-02-21T14:18:17Z</time>
      </trkpt>
      <trkpt lat="46.71802" lon="5.41909">
        <ele>191.92</ele>
        <time>2013-02-21T14:18:34Z</time>
      </trkpt>
      <trkpt lat="46.71806" lon="5.41936">
        <ele>193.84</ele>
        <time>2013-02-21T14:18:50Z</time>
      </trkpt>
      <trkpt lat="46.71811" lon="5.41964">
        <ele>196.73</ele>
        <time>2013-02-21T14:19:07Z</time>
      </trkpt>
      <trkpt lat="46.7181" lon="5.41991">
        <ele>192.88</ele>
        <time>2013-02-21T14:19:25Z</time>
      </trkpt>
      <trkpt lat="46.71811" lon="5.42019">
        <ele>189.52</ele>
        <time>2013-02-21T14:19:43Z</time>
      </trkpt>
      <trkpt lat="46.71812" lon="5.4203">
        <ele>189.52</ele>
        <time>2013-02-21T14:19:59Z</time>
      </trkpt>
      <trkpt lat="46.71813" lon="5.4204">
        <ele>188.56</ele>
        <time>2013-02-21T14:20:17Z</time>
      </trkpt>
      <trkpt lat="46.71816" lon="5.4206">
        <ele>190</ele>
        <time>2013-02-21T14:20:32Z</time>
      </trkpt>
      <trkpt lat="46.71817" lon="5.42063">
        <ele>191.92</ele>
        <time>2013-02-21T14:20:53Z</time>
      </trkpt>
      <trkpt lat="46.71818" lon="5.42066">
        <ele>191.92</ele>
        <time>2013-02-21T14:21:11Z</time>
      </trkpt>
      <trkpt lat="46.71818" lon="5.42075">
        <ele>191.92</ele>
        <time>2013-02-21T14:21:16Z</time>
      </trkpt>
      <trkpt lat="46.71818" lon="5.4208">
        <ele>191.44</ele>
        <time>2013-02-21T14:21:19Z</time>
      </trkpt>
      <trkpt lat="46.7182" lon="5.42087">
        <ele>192.4</ele>
        <time>2013-02-21T14:21:39Z</time>
      </trkpt>
      <trkpt lat="46.71822" lon="5.42092">
        <ele>192.88</ele>
        <time>2013-02-21T14:21:51Z</time>
      </trkpt>
      <trkpt lat="46.71822" lon="5.42117">
        <ele>192.88</ele>
        <time>2013-02-21T14:22:05Z</time>
      </trkpt>
      <trkpt lat="46.71822" lon="5.42127">
        <ele>191.92</ele>
        <time>2013-02-21T14:22:12Z</time>
      </trkpt>
      <trkpt lat="46.71821" lon="5.42149">
        <ele>190.48</ele>
        <time>2013-02-21T14:22:27Z</time>
      </trkpt>
      <trkpt lat="46.71823" lon="5.42175">
        <ele>187.11</ele>
        <time>2013-02-21T14:22:46Z</time>
      </trkpt>
      <trkpt lat="46.71823" lon="5.42204">
        <ele>185.67</ele>
        <time>2013-02-21T14:23:04Z</time>
      </trkpt>
      <trkpt lat="46.71823" lon="5.42233">
        <ele>186.63</ele>
        <time>2013-02-21T14:23:22Z</time>
      </trkpt>
      <trkpt lat="46.71826" lon="5.42248">
        <ele>188.08</ele>
        <time>2013-02-21T14:23:31Z</time>
      </trkpt>
      <trkpt lat="46.71828" lon="5.4228">
        <ele>190</ele>
        <time>2013-02-21T14:23:48Z</time>
      </trkpt>
      <trkpt lat="46.71828" lon="5.42297">
        <ele>190</ele>
        <time>2013-02-21T14:23:58Z</time>
      </trkpt>
      <trkpt lat="46.71828" lon="5.42324">
        <ele>190.96</ele>
        <time>2013-02-21T14:24:13Z</time>
      </trkpt>
      <trkpt lat="46.7183" lon="5.42357">
        <ele>190.48</ele>
        <time>2013-02-21T14:24:32Z</time>
      </trkpt>
      <trkpt lat="46.7183" lon="5.42378">
        <ele>190.48</ele>
        <time>2013-02-21T14:24:46Z</time>
      </trkpt>
      <trkpt lat="46.7183" lon="5.42386">
        <ele>190</ele>
        <time>2013-02-21T14:24:51Z</time>
      </trkpt>
      <trkpt lat="46.71831" lon="5.42413">
        <ele>187.59</ele>
        <time>2013-02-21T14:25:08Z</time>
      </trkpt>
      <trkpt lat="46.71832" lon="5.42426">
        <ele>186.63</ele>
        <time>2013-02-21T14:25:16Z</time>
      </trkpt>
      <trkpt lat="46.71835" lon="5.42461">
        <ele>187.11</ele>
        <time>2013-02-21T14:25:36Z</time>
      </trkpt>
      <trkpt lat="46.71835" lon="5.42476">
        <ele>187.59</ele>
        <time>2013-02-21T14:25:44Z</time>
      </trkpt>
      <trkpt lat="46.71836" lon="5.42492">
        <ele>188.08</ele>
        <time>2013-02-21T14:25:53Z</time>
      </trkpt>
      <trkpt lat="46.71839" lon="5.42531">
        <ele>193.84</ele>
        <time>2013-02-21T14:26:14Z</time>
      </trkpt>
      <trkpt lat="46.7184" lon="5.42563">
        <ele>194.8</ele>
        <time>2013-02-21T14:26:32Z</time>
      </trkpt>
      <trkpt lat="46.71839" lon="5.42591">
        <ele>194.32</ele>
        <time>2013-02-21T14:26:50Z</time>
      </trkpt>
      <trkpt lat="46.71842" lon="5.42617">
        <ele>192.88</ele>
        <time>2013-02-21T14:27:07Z</time>
      </trkpt>
      <trkpt lat="46.71842" lon="5.42641">
        <ele>192.88</ele>
        <time>2013-02-21T14:27:22Z</time>
      </trkpt>
      <trkpt lat="46.71842" lon="5.42666">
        <ele>192.88</ele>
        <time>2013-02-21T14:27:37Z</time>
      </trkpt>
      <trkpt lat="46.71842" lon="5.42693">
        <ele>192.88</ele>
        <time>2013-02-21T14:27:54Z</time>
      </trkpt>
      <trkpt lat="46.71843" lon="5.42716">
        <ele>193.36</ele>
        <time>2013-02-21T14:28:10Z</time>
      </trkpt>
      <trkpt lat="46.71844" lon="5.42731">
        <ele>193.36</ele>
        <time>2013-02-21T14:28:20Z</time>
      </trkpt>
      <trkpt lat="46.71846" lon="5.42766">
        <ele>193.84</ele>
        <time>2013-02-21T14:28:38Z</time>
      </trkpt>
      <trkpt lat="46.71848" lon="5.42795">
        <ele>195.28</ele>
        <time>2013-02-21T14:28:55Z</time>
      </trkpt>
      <trkpt lat="46.71849" lon="5.42818">
        <ele>195.77</ele>
        <time>2013-02-21T14:29:09Z</time>
      </trkpt>
      <trkpt lat="46.71849" lon="5.42847">
        <ele>195.28</ele>
        <time>2013-02-21T14:29:26Z</time>
      </trkpt>
      <trkpt lat="46.7185" lon="5.42874">
        <ele>195.77</ele>
        <time>2013-02-21T14:29:43Z</time>
      </trkpt>
      <trkpt lat="46.71852" lon="5.42898">
        <ele>196.25</ele>
        <time>2013-02-21T14:29:58Z</time>
      </trkpt>
      <trkpt lat="46.71853" lon="5.42921">
        <ele>196.25</ele>
        <time>2013-02-21T14:30:13Z</time>
      </trkpt>
      <trkpt lat="46.71854" lon="5.42951">
        <ele>196.25</ele>
        <time>2013-02-21T14:30:31Z</time>
      </trkpt>
      <trkpt lat="46.71856" lon="5.42962">
        <ele>197.69</ele>
        <time>2013-02-21T14:30:47Z</time>
      </trkpt>
      <trkpt lat="46.71856" lon="5.42964">
        <ele>198.65</ele>
        <time>2013-02-21T14:31:20Z</time>
      </trkpt>
      <trkpt lat="46.71857" lon="5.42964">
        <ele>199.13</ele>
        <time>2013-02-21T14:31:36Z</time>
      </trkpt>
      <trkpt lat="46.71857" lon="5.42984">
        <ele>197.21</ele>
        <time>2013-02-21T14:31:52Z</time>
      </trkpt>
      <trkpt lat="46.71859" lon="5.43011">
        <ele>192.4</ele>
        <time>2013-02-21T14:32:09Z</time>
      </trkpt>
      <trkpt lat="46.71863" lon="5.43033">
        <ele>186.15</ele>
        <time>2013-02-21T14:32:27Z</time>
      </trkpt>
      <trkpt lat="46.71865" lon="5.4307">
        <ele>180.38</ele>
        <time>2013-02-21T14:32:47Z</time>
      </trkpt>
      <trkpt lat="46.71868" lon="5.43096">
        <ele>175.1</ele>
        <time>2013-02-21T14:33:06Z</time>
      </trkpt>
      <trkpt lat="46.71868" lon="5.43124">
        <ele>175.1</ele>
        <time>2013-02-21T14:33:23Z</time>
      </trkpt>
      <trkpt lat="46.71867" lon="5.4316">
        <ele>179.42</ele>
        <time>2013-02-21T14:33:42Z</time>
      </trkpt>
      <trkpt lat="46.71866" lon="5.43174">
        <ele>182.79</ele>
        <time>2013-02-21T14:33:59Z</time>
      </trkpt>
      <trkpt lat="46.71863" lon="5.43187">
        <ele>188.56</ele>
        <time>2013-02-21T14:34:23Z</time>
      </trkpt>
      <trkpt lat="46.71861" lon="5.43197">
        <ele>189.04</ele>
        <time>2013-02-21T14:34:41Z</time>
      </trkpt>
      <trkpt lat="46.71861" lon="5.4323">
        <ele>185.19</ele>
        <time>2013-02-21T14:35:01Z</time>
      </trkpt>
      <trkpt lat="46.71855" lon="5.43273">
        <ele>181.35</ele>
        <time>2013-02-21T14:35:26Z</time>
      </trkpt>
      <trkpt lat="46.71854" lon="5.43311">
        <ele>186.63</ele>
        <time>2013-02-21T14:35:47Z</time>
      </trkpt>
      <trkpt lat="46.71853" lon="5.43347">
        <ele>184.71</ele>
        <time>2013-02-21T14:36:09Z</time>
      </trkpt>
      <trkpt lat="46.71848" lon="5.43382">
        <ele>187.11</ele>
        <time>2013-02-21T14:36:29Z</time>
      </trkpt>
      <trkpt lat="46.71844" lon="5.4342">
        <ele>185.67</ele>
        <time>2013-02-21T14:36:53Z</time>
      </trkpt>
      <trkpt lat="46.71842" lon="5.4345">
        <ele>180.38</ele>
        <time>2013-02-21T14:37:15Z</time>
      </trkpt>
      <trkpt lat="46.71836" lon="5.43465">
        <ele>183.75</ele>
        <time>2013-02-21T14:37:33Z</time>
      </trkpt>
      <trkpt lat="46.7184" lon="5.43487">
        <ele>188.08</ele>
        <time>2013-02-21T14:37:47Z</time>
      </trkpt>
      <trkpt lat="46.7184" lon="5.43518">
        <ele>189.52</ele>
        <time>2013-02-21T14:38:06Z</time>
      </trkpt>
      <trkpt lat="46.71837" lon="5.43546">
        <ele>191.44</ele>
        <time>2013-02-21T14:38:23Z</time>
      </trkpt>
      <trkpt lat="46.71835" lon="5.43586">
        <ele>197.69</ele>
        <time>2013-02-21T14:38:41Z</time>
      </trkpt>
      <trkpt lat="46.71834" lon="5.43609">
        <ele>193.36</ele>
        <time>2013-02-21T14:38:59Z</time>
      </trkpt>
      <trkpt lat="46.71833" lon="5.43627">
        <ele>189.04</ele>
        <time>2013-02-21T14:39:15Z</time>
      </trkpt>
      <trkpt lat="46.71831" lon="5.43646">
        <ele>186.63</ele>
        <time>2013-02-21T14:39:29Z</time>
      </trkpt>
      <trkpt lat="46.7183" lon="5.43657">
        <ele>186.63</ele>
        <time>2013-02-21T14:39:36Z</time>
      </trkpt>
      <trkpt lat="46.71828" lon="5.4369">
        <ele>189.04</ele>
        <time>2013-02-21T14:39:54Z</time>
      </trkpt>
      <trkpt lat="46.71828" lon="5.43716">
        <ele>192.88</ele>
        <time>2013-02-21T14:40:11Z</time>
      </trkpt>
      <trkpt lat="46.71828" lon="5.43738">
        <ele>192.88</ele>
        <time>2013-02-21T14:40:25Z</time>
      </trkpt>
      <trkpt lat="46.71825" lon="5.43766">
        <ele>193.84</ele>
        <time>2013-02-21T14:40:41Z</time>
      </trkpt>
      <trkpt lat="46.71823" lon="5.43792">
        <ele>194.32</ele>
        <time>2013-02-21T14:40:56Z</time>
      </trkpt>
      <trkpt lat="46.71822" lon="5.43809">
        <ele>189.04</ele>
        <time>2013-02-21T14:41:11Z</time>
      </trkpt>
      <trkpt lat="46.71822" lon="5.43833">
        <ele>184.71</ele>
        <time>2013-02-21T14:41:28Z</time>
      </trkpt>
      <trkpt lat="46.71819" lon="5.43856">
        <ele>185.67</ele>
        <time>2013-02-21T14:41:41Z</time>
      </trkpt>
      <trkpt lat="46.71817" lon="5.43885">
        <ele>188.08</ele>
        <time>2013-02-21T14:41:56Z</time>
      </trkpt>
      <trkpt lat="46.71817" lon="5.43903">
        <ele>191.44</ele>
        <time>2013-02-21T14:42:15Z</time>
      </trkpt>
      <trkpt lat="46.71816" lon="5.43924">
        <ele>191.92</ele>
        <time>2013-02-21T14:42:34Z</time>
      </trkpt>
      <trkpt lat="46.71815" lon="5.43951">
        <ele>189.52</ele>
        <time>2013-02-21T14:42:52Z</time>
      </trkpt>
      <trkpt lat="46.71813" lon="5.43978">
        <ele>185.67</ele>
        <time>2013-02-21T14:43:11Z</time>
      </trkpt>
      <trkpt lat="46.71812" lon="5.44009">
        <ele>185.67</ele>
        <time>2013-02-21T14:43:29Z</time>
      </trkpt>
      <trkpt lat="46.71809" lon="5.44039">
        <ele>190</ele>
        <time>2013-02-21T14:43:45Z</time>
      </trkpt>
      <trkpt lat="46.71807" lon="5.44044">
        <ele>194.32</ele>
        <time>2013-02-21T14:44:04Z</time>
      </trkpt>
      <trkpt lat="46.71807" lon="5.44042">
        <ele>196.73</ele>
        <time>2013-02-21T14:44:35Z</time>
      </trkpt>
      <trkpt lat="46.71808" lon="5.44043">
        <ele>198.17</ele>
        <time>2013-02-21T14:44:55Z</time>
      </trkpt>
      <trkpt lat="46.71807" lon="5.44043">
        <ele>199.61</ele>
        <time>2013-02-21T14:45:26Z</time>
      </trkpt>
      <trkpt lat="46.71807" lon="5.44043">
        <ele>200.09</ele>
        <time>2013-02-21T14:45:41Z</time>
      </trkpt>
      <trkpt lat="46.71807" lon="5.44043">
        <ele>200.09</ele>
        <time>2013-02-21T14:46:05Z</time>
      </trkpt>
      <trkpt lat="46.71806" lon="5.44043">
        <ele>200.57</ele>
        <time>2013-02-21T14:46:25Z</time>
      </trkpt>
      <trkpt lat="46.71806" lon="5.44043">
        <ele>201.05</ele>
        <time>2013-02-21T14:46:52Z</time>
      </trkpt>
      <trkpt lat="46.71806" lon="5.44042">
        <ele>201.53</ele>
        <time>2013-02-21T14:47:16Z</time>
      </trkpt>
      <trkpt lat="46.71806" lon="5.44041">
        <ele>201.05</ele>
        <time>2013-02-21T14:47:46Z</time>
      </trkpt>
      <trkpt lat="46.71805" lon="5.4404">
        <ele>201.05</ele>
        <time>2013-02-21T14:48:10Z</time>
      </trkpt>
      <trkpt lat="46.71805" lon="5.4404">
        <ele>201.05</ele>
        <time>2013-02-21T14:48:26Z</time>
      </trkpt>
      <trkpt lat="46.71805" lon="5.44041">
        <ele>201.53</ele>
        <time>2013-02-21T14:48:45Z</time>
      </trkpt>
      <trkpt lat="46.71805" lon="5.44042">
        <ele>201.05</ele>
        <time>2013-02-21T14:48:59Z</time>
      </trkpt>
      <trkpt lat="46.71807" lon="5.4405">
        <ele>200.57</ele>
        <time>2013-02-21T14:49:21Z</time>
      </trkpt>
      <trkpt lat="46.71806" lon="5.4407">
        <ele>194.8</ele>
        <time>2013-02-21T14:49:38Z</time>
      </trkpt>
      <trkpt lat="46.71805" lon="5.44097">
        <ele>190</ele>
        <time>2013-02-21T14:49:54Z</time>
      </trkpt>
      <trkpt lat="46.71804" lon="5.44125">
        <ele>185.19</ele>
        <time>2013-02-21T14:50:13Z</time>
      </trkpt>
      <trkpt lat="46.71801" lon="5.44154">
        <ele>178.94</ele>
        <time>2013-02-21T14:50:33Z</time>
      </trkpt>
      <trkpt lat="46.71798" lon="5.44181">
        <ele>173.17</ele>
        <time>2013-02-21T14:50:54Z</time>
      </trkpt>
      <trkpt lat="46.71794" lon="5.44203">
        <ele>179.9</ele>
        <time>2013-02-21T14:51:16Z</time>
      </trkpt>
      <trkpt lat="46.71795" lon="5.44209">
        <ele>181.35</ele>
        <time>2013-02-21T14:51:30Z</time>
      </trkpt>
      <trkpt lat="46.718" lon="5.4424">
        <ele>181.83</ele>
        <time>2013-02-21T14:51:47Z</time>
      </trkpt>
      <trkpt lat="46.7181" lon="5.44276">
        <ele>182.31</ele>
        <time>2013-02-21T14:52:07Z</time>
      </trkpt>
      <trkpt lat="46.71815" lon="5.44305">
        <ele>181.83</ele>
        <time>2013-02-21T14:52:25Z</time>
      </trkpt>
      <trkpt lat="46.71815" lon="5.44307">
        <ele>182.31</ele>
        <time>2013-02-21T14:52:26Z</time>
      </trkpt>
      <trkpt lat="46.71807" lon="5.44317">
        <ele>185.67</ele>
        <time>2013-02-21T14:52:33Z</time>
      </trkpt>
      <trkpt lat="46.7179" lon="5.44311">
        <ele>188.56</ele>
        <time>2013-02-21T14:52:50Z</time>
      </trkpt>
      <trkpt lat="46.71787" lon="5.44308">
        <ele>189.52</ele>
        <time>2013-02-21T14:52:53Z</time>
      </trkpt>
      <trkpt lat="46.71772" lon="5.44289">
        <ele>192.4</ele>
        <time>2013-02-21T14:53:10Z</time>
      </trkpt>
      <trkpt lat="46.71758" lon="5.44269">
        <ele>194.32</ele>
        <time>2013-02-21T14:53:27Z</time>
      </trkpt>
      <trkpt lat="46.71753" lon="5.4426">
        <ele>197.69</ele>
        <time>2013-02-21T14:53:43Z</time>
      </trkpt>
      <trkpt lat="46.7174" lon="5.44243">
        <ele>198.65</ele>
        <time>2013-02-21T14:53:59Z</time>
      </trkpt>
      <trkpt lat="46.71725" lon="5.44222">
        <ele>199.61</ele>
        <time>2013-02-21T14:54:17Z</time>
      </trkpt>
      <trkpt lat="46.71713" lon="5.44203">
        <ele>200.57</ele>
        <time>2013-02-21T14:54:32Z</time>
      </trkpt>
      <trkpt lat="46.71703" lon="5.44189">
        <ele>200.57</ele>
        <time>2013-02-21T14:54:49Z</time>
      </trkpt>
      <trkpt lat="46.71701" lon="5.44186">
        <ele>201.05</ele>
        <time>2013-02-21T14:55:08Z</time>
      </trkpt>
      <trkpt lat="46.71686" lon="5.44164">
        <ele>203.46</ele>
        <time>2013-02-21T14:55:25Z</time>
      </trkpt>
      <trkpt lat="46.71674" lon="5.44144">
        <ele>203.46</ele>
        <time>2013-02-21T14:55:42Z</time>
      </trkpt>
      <trkpt lat="46.71662" lon="5.44126">
        <ele>203.46</ele>
        <time>2013-02-21T14:55:57Z</time>
      </trkpt>
      <trkpt lat="46.71648" lon="5.44104">
        <ele>205.86</ele>
        <time>2013-02-21T14:56:13Z</time>
      </trkpt>
      <trkpt lat="46.71644" lon="5.44097">
        <ele>206.82</ele>
        <time>2013-02-21T14:56:19Z</time>
      </trkpt>
      <trkpt lat="46.71628" lon="5.44073">
        <ele>206.82</ele>
        <time>2013-02-21T14:56:39Z</time>
      </trkpt>
      <trkpt lat="46.71618" lon="5.44058">
        <ele>206.82</ele>
        <time>2013-02-21T14:56:56Z</time>
      </trkpt>
      <trkpt lat="46.71603" lon="5.44035">
        <ele>205.86</ele>
        <time>2013-02-21T14:57:13Z</time>
      </trkpt>
      <trkpt lat="46.71588" lon="5.44012">
        <ele>205.38</ele>
        <time>2013-02-21T14:57:31Z</time>
      </trkpt>
      <trkpt lat="46.71584" lon="5.44007">
        <ele>205.86</ele>
        <time>2013-02-21T14:57:48Z</time>
      </trkpt>
      <trkpt lat="46.7157" lon="5.43985">
        <ele>204.42</ele>
        <time>2013-02-21T14:58:06Z</time>
      </trkpt>
      <trkpt lat="46.71564" lon="5.43974">
        <ele>204.9</ele>
        <time>2013-02-21T14:58:21Z</time>
      </trkpt>
      <trkpt lat="46.71554" lon="5.43959">
        <ele>203.46</ele>
        <time>2013-02-21T14:58:36Z</time>
      </trkpt>
      <trkpt lat="46.7154" lon="5.43943">
        <ele>204.42</ele>
        <time>2013-02-21T14:58:51Z</time>
      </trkpt>
      <trkpt lat="46.7153" lon="5.43924">
        <ele>203.94</ele>
        <time>2013-02-21T14:59:07Z</time>
      </trkpt>
      <trkpt lat="46.71517" lon="5.43903">
        <ele>203.94</ele>
        <time>2013-02-21T14:59:23Z</time>
      </trkpt>
      <trkpt lat="46.71502" lon="5.43882">
        <ele>202.98</ele>
        <time>2013-02-21T14:59:41Z</time>
      </trkpt>
      <trkpt lat="46.71487" lon="5.43861">
        <ele>203.46</ele>
        <time>2013-02-21T14:59:58Z</time>
      </trkpt>
      <trkpt lat="46.71473" lon="5.4384">
        <ele>202.49</ele>
        <time>2013-02-21T15:00:15Z</time>
      </trkpt>
      <trkpt lat="46.71461" lon="5.43821">
        <ele>201.05</ele>
        <time>2013-02-21T15:00:30Z</time>
      </trkpt>
      <trkpt lat="46.71449" lon="5.43806">
        <ele>200.09</ele>
        <time>2013-02-21T15:00:46Z</time>
      </trkpt>
      <trkpt lat="46.71444" lon="5.43795">
        <ele>199.61</ele>
        <time>2013-02-21T15:01:05Z</time>
      </trkpt>
      <trkpt lat="46.71439" lon="5.4376">
        <ele>198.65</ele>
        <time>2013-02-21T15:01:25Z</time>
      </trkpt>
      <trkpt lat="46.71441" lon="5.43746">
        <ele>197.69</ele>
        <time>2013-02-21T15:01:33Z</time>
      </trkpt>
      <trkpt lat="46.71445" lon="5.43722">
        <ele>194.32</ele>
        <time>2013-02-21T15:01:47Z</time>
      </trkpt>
      <trkpt lat="46.7145" lon="5.43703">
        <ele>190.96</ele>
        <time>2013-02-21T15:02:01Z</time>
      </trkpt>
      <trkpt lat="46.71454" lon="5.43694">
        <ele>190.96</ele>
        <time>2013-02-21T15:02:19Z</time>
      </trkpt>
      <trkpt lat="46.71464" lon="5.43684">
        <ele>190.96</ele>
        <time>2013-02-21T15:02:38Z</time>
      </trkpt>
      <trkpt lat="46.71465" lon="5.43676">
        <ele>192.4</ele>
        <time>2013-02-21T15:02:53Z</time>
      </trkpt>
      <trkpt lat="46.71465" lon="5.43674">
        <ele>195.77</ele>
        <time>2013-02-21T15:03:11Z</time>
      </trkpt>
      <trkpt lat="46.71464" lon="5.43674">
        <ele>196.25</ele>
        <time>2013-02-21T15:03:30Z</time>
      </trkpt>
      <trkpt lat="46.71466" lon="5.43664">
        <ele>196.25</ele>
        <time>2013-02-21T15:03:47Z</time>
      </trkpt>
      <trkpt lat="46.71466" lon="5.43658">
        <ele>195.77</ele>
        <time>2013-02-21T15:03:51Z</time>
      </trkpt>
      <trkpt lat="46.71472" lon="5.43628">
        <ele>196.73</ele>
        <time>2013-02-21T15:04:07Z</time>
      </trkpt>
      <trkpt lat="46.71479" lon="5.43599">
        <ele>195.28</ele>
        <time>2013-02-21T15:04:22Z</time>
      </trkpt>
      <trkpt lat="46.71482" lon="5.43578">
        <ele>197.69</ele>
        <time>2013-02-21T15:04:36Z</time>
      </trkpt>
      <trkpt lat="46.71485" lon="5.43561">
        <ele>200.09</ele>
        <time>2013-02-21T15:04:57Z</time>
      </trkpt>
      <trkpt lat="46.71491" lon="5.43538">
        <ele>200.09</ele>
        <time>2013-02-21T15:05:12Z</time>
      </trkpt>
      <trkpt lat="46.71498" lon="5.43513">
        <ele>201.05</ele>
        <time>2013-02-21T15:05:27Z</time>
      </trkpt>
      <trkpt lat="46.71503" lon="5.43486">
        <ele>202.98</ele>
        <time>2013-02-21T15:05:43Z</time>
      </trkpt>
      <trkpt lat="46.71509" lon="5.43462">
        <ele>200.57</ele>
        <time>2013-02-21T15:05:59Z</time>
      </trkpt>
      <trkpt lat="46.71509" lon="5.43454">
        <ele>202.49</ele>
        <time>2013-02-21T15:06:07Z</time>
      </trkpt>
      <trkpt lat="46.71513" lon="5.43445">
        <ele>202.01</ele>
        <time>2013-02-21T15:06:13Z</time>
      </trkpt>
      <trkpt lat="46.7152" lon="5.43412">
        <ele>200.09</ele>
        <time>2013-02-21T15:06:33Z</time>
      </trkpt>
      <trkpt lat="46.7152" lon="5.43411">
        <ele>198.65</ele>
        <time>2013-02-21T15:06:48Z</time>
      </trkpt>
      <trkpt lat="46.7152" lon="5.43409">
        <ele>200.09</ele>
        <time>2013-02-21T15:07:06Z</time>
      </trkpt>
      <trkpt lat="46.71521" lon="5.4341">
        <ele>200.57</ele>
        <time>2013-02-21T15:07:29Z</time>
      </trkpt>
      <trkpt lat="46.71522" lon="5.4341">
        <ele>201.05</ele>
        <time>2013-02-21T15:07:38Z</time>
      </trkpt>
      <trkpt lat="46.71526" lon="5.4339">
        <ele>201.53</ele>
        <time>2013-02-21T15:07:52Z</time>
      </trkpt>
      <trkpt lat="46.71528" lon="5.43384">
        <ele>201.05</ele>
        <time>2013-02-21T15:07:56Z</time>
      </trkpt>
      <trkpt lat="46.71535" lon="5.43352">
        <ele>201.53</ele>
        <time>2013-02-21T15:08:14Z</time>
      </trkpt>
      <trkpt lat="46.71541" lon="5.43321">
        <ele>200.57</ele>
        <time>2013-02-21T15:08:31Z</time>
      </trkpt>
      <trkpt lat="46.71546" lon="5.43292">
        <ele>197.21</ele>
        <time>2013-02-21T15:08:49Z</time>
      </trkpt>
      <trkpt lat="46.71551" lon="5.43269">
        <ele>192.88</ele>
        <time>2013-02-21T15:09:04Z</time>
      </trkpt>
      <trkpt lat="46.71556" lon="5.43245">
        <ele>187.11</ele>
        <time>2013-02-21T15:09:20Z</time>
      </trkpt>
      <trkpt lat="46.71563" lon="5.43221">
        <ele>181.83</ele>
        <time>2013-02-21T15:09:35Z</time>
      </trkpt>
      <trkpt lat="46.71567" lon="5.43198">
        <ele>177.02</ele>
        <time>2013-02-21T15:09:50Z</time>
      </trkpt>
      <trkpt lat="46.71568" lon="5.43192">
        <ele>175.58</ele>
        <time>2013-02-21T15:09:54Z</time>
      </trkpt>
      <trkpt lat="46.7157" lon="5.43184">
        <ele>176.54</ele>
        <time>2013-02-21T15:09:58Z</time>
      </trkpt>
      <trkpt lat="46.7158" lon="5.43155">
        <ele>183.27</ele>
        <time>2013-02-21T15:10:15Z</time>
      </trkpt>
      <trkpt lat="46.71585" lon="5.43146">
        <ele>184.71</ele>
        <time>2013-02-21T15:10:20Z</time>
      </trkpt>
      <trkpt lat="46.71594" lon="5.43121">
        <ele>185.67</ele>
        <time>2013-02-21T15:10:37Z</time>
      </trkpt>
      <trkpt lat="46.71597" lon="5.43111">
        <ele>190</ele>
        <time>2013-02-21T15:10:48Z</time>
      </trkpt>
      <trkpt lat="46.716" lon="5.43103">
        <ele>190.48</ele>
        <time>2013-02-21T15:11:05Z</time>
      </trkpt>
      <trkpt lat="46.71595" lon="5.43095">
        <ele>193.36</ele>
        <time>2013-02-21T15:11:23Z</time>
      </trkpt>
      <trkpt lat="46.71596" lon="5.43086">
        <ele>193.36</ele>
        <time>2013-02-21T15:11:29Z</time>
      </trkpt>
      <trkpt lat="46.716" lon="5.43071">
        <ele>194.8</ele>
        <time>2013-02-21T15:11:39Z</time>
      </trkpt>
      <trkpt lat="46.71606" lon="5.43049">
        <ele>194.32</ele>
        <time>2013-02-21T15:11:53Z</time>
      </trkpt>
      <trkpt lat="46.71609" lon="5.4303">
        <ele>194.32</ele>
        <time>2013-02-21T15:12:12Z</time>
      </trkpt>
      <trkpt lat="46.71612" lon="5.43025">
        <ele>197.21</ele>
        <time>2013-02-21T15:12:39Z</time>
      </trkpt>
      <trkpt lat="46.71617" lon="5.43007">
        <ele>195.28</ele>
        <time>2013-02-21T15:12:56Z</time>
      </trkpt>
      <trkpt lat="46.71618" lon="5.43001">
        <ele>195.77</ele>
        <time>2013-02-21T15:13:00Z</time>
      </trkpt>
      <trkpt lat="46.7162" lon="5.42981">
        <ele>195.28</ele>
        <time>2013-02-21T15:13:16Z</time>
      </trkpt>
      <trkpt lat="46.71625" lon="5.4297">
        <ele>196.25</ele>
        <time>2013-02-21T15:13:29Z</time>
      </trkpt>
      <trkpt lat="46.71632" lon="5.42938">
        <ele>192.4</ele>
        <time>2013-02-21T15:13:50Z</time>
      </trkpt>
      <trkpt lat="46.71642" lon="5.42907">
        <ele>187.59</ele>
        <time>2013-02-21T15:14:10Z</time>
      </trkpt>
      <trkpt lat="46.71644" lon="5.42897">
        <ele>188.08</ele>
        <time>2013-02-21T15:14:29Z</time>
      </trkpt>
      <trkpt lat="46.71646" lon="5.42897">
        <ele>190.48</ele>
        <time>2013-02-21T15:14:49Z</time>
      </trkpt>
      <trkpt lat="46.71646" lon="5.42897">
        <ele>191.44</ele>
        <time>2013-02-21T15:15:08Z</time>
      </trkpt>
      <trkpt lat="46.71648" lon="5.42885">
        <ele>190.48</ele>
        <time>2013-02-21T15:15:26Z</time>
      </trkpt>
      <trkpt lat="46.71648" lon="5.42883">
        <ele>190.48</ele>
        <time>2013-02-21T15:15:27Z</time>
      </trkpt>
      <trkpt lat="46.71658" lon="5.42849">
        <ele>189.52</ele>
        <time>2013-02-21T15:15:44Z</time>
      </trkpt>
      <trkpt lat="46.71668" lon="5.42829">
        <ele>184.71</ele>
        <time>2013-02-21T15:16:01Z</time>
      </trkpt>
      <trkpt lat="46.71669" lon="5.42811">
        <ele>184.71</ele>
        <time>2013-02-21T15:16:16Z</time>
      </trkpt>
      <trkpt lat="46.71665" lon="5.42798">
        <ele>182.79</ele>
        <time>2013-02-21T15:16:32Z</time>
      </trkpt>
      <trkpt lat="46.71652" lon="5.42789">
        <ele>183.27</ele>
        <time>2013-02-21T15:16:48Z</time>
      </trkpt>
      <trkpt lat="46.71632" lon="5.42782">
        <ele>183.27</ele>
        <time>2013-02-21T15:17:08Z</time>
      </trkpt>
      <trkpt lat="46.71611" lon="5.42767">
        <ele>184.71</ele>
        <time>2013-02-21T15:17:24Z</time>
      </trkpt>
      <trkpt lat="46.71601" lon="5.42765">
        <ele>185.19</ele>
        <time>2013-02-21T15:17:41Z</time>
      </trkpt>
      <trkpt lat="46.7159" lon="5.42759">
        <ele>186.15</ele>
        <time>2013-02-21T15:18:00Z</time>
      </trkpt>
      <trkpt lat="46.71567" lon="5.42744">
        <ele>188.08</ele>
        <time>2013-02-21T15:18:20Z</time>
      </trkpt>
      <trkpt lat="46.71549" lon="5.42738">
        <ele>186.15</ele>
        <time>2013-02-21T15:18:41Z</time>
      </trkpt>
      <trkpt lat="46.71527" lon="5.42733">
        <ele>185.19</ele>
        <time>2013-02-21T15:19:03Z</time>
      </trkpt>
      <trkpt lat="46.71509" lon="5.42724">
        <ele>185.19</ele>
        <time>2013-02-21T15:19:20Z</time>
      </trkpt>
      <trkpt lat="46.71487" lon="5.42713">
        <ele>185.67</ele>
        <time>2013-02-21T15:19:43Z</time>
      </trkpt>
      <trkpt lat="46.71479" lon="5.42709">
        <ele>190.96</ele>
        <time>2013-02-21T15:20:07Z</time>
      </trkpt>
      <trkpt lat="46.71478" lon="5.42709">
        <ele>190.96</ele>
        <time>2013-02-21T15:20:08Z</time>
      </trkpt>
      <trkpt lat="46.71456" lon="5.42692">
        <ele>193.84</ele>
        <time>2013-02-21T15:20:27Z</time>
      </trkpt>
      <trkpt lat="46.71441" lon="5.42676">
        <ele>196.25</ele>
        <time>2013-02-21T15:20:42Z</time>
      </trkpt>
      <trkpt lat="46.71417" lon="5.42665">
        <ele>196.73</ele>
        <time>2013-02-21T15:21:04Z</time>
      </trkpt>
      <trkpt lat="46.71401" lon="5.4266">
        <ele>196.73</ele>
        <time>2013-02-21T15:21:20Z</time>
      </trkpt>
      <trkpt lat="46.714" lon="5.42657">
        <ele>197.69</ele>
        <time>2013-02-21T15:21:35Z</time>
      </trkpt>
      <trkpt lat="46.714" lon="5.42652">
        <ele>197.69</ele>
        <time>2013-02-21T15:21:56Z</time>
      </trkpt>
      <trkpt lat="46.714" lon="5.42651">
        <ele>197.69</ele>
        <time>2013-02-21T15:21:57Z</time>
      </trkpt>
      <trkpt lat="46.71405" lon="5.42627">
        <ele>198.17</ele>
        <time>2013-02-21T15:22:12Z</time>
      </trkpt>
      <trkpt lat="46.71412" lon="5.42599">
        <ele>200.09</ele>
        <time>2013-02-21T15:22:27Z</time>
      </trkpt>
      <trkpt lat="46.71415" lon="5.42592">
        <ele>199.61</ele>
        <time>2013-02-21T15:22:32Z</time>
      </trkpt>
      <trkpt lat="46.71431" lon="5.42583">
        <ele>202.49</ele>
        <time>2013-02-21T15:22:48Z</time>
      </trkpt>
      <trkpt lat="46.71438" lon="5.42582">
        <ele>203.46</ele>
        <time>2013-02-21T15:23:05Z</time>
      </trkpt>
      <trkpt lat="46.71438" lon="5.42581">
        <ele>203.46</ele>
        <time>2013-02-21T15:23:25Z</time>
      </trkpt>
      <trkpt lat="46.71429" lon="5.42569">
        <ele>202.49</ele>
        <time>2013-02-21T15:23:42Z</time>
      </trkpt>
      <trkpt lat="46.71436" lon="5.4258">
        <ele>198.65</ele>
        <time>2013-02-21T15:23:59Z</time>
      </trkpt>
      <trkpt lat="46.71438" lon="5.42581">
        <ele>198.17</ele>
        <time>2013-02-21T15:24:13Z</time>
      </trkpt>
      <trkpt lat="46.71439" lon="5.4258">
        <ele>200.09</ele>
        <time>2013-02-21T15:24:39Z</time>
      </trkpt>
      <trkpt lat="46.71439" lon="5.4258">
        <ele>200.09</ele>
        <time>2013-02-21T15:25:03Z</time>
      </trkpt>
      <trkpt lat="46.71439" lon="5.4258">
        <ele>200.09</ele>
        <time>2013-02-21T15:25:28Z</time>
      </trkpt>
      <trkpt lat="46.71437" lon="5.42581">
        <ele>199.61</ele>
        <time>2013-02-21T15:25:52Z</time>
      </trkpt>
      <trkpt lat="46.71436" lon="5.42582">
        <ele>198.17</ele>
        <time>2013-02-21T15:26:14Z</time>
      </trkpt>
      <trkpt lat="46.71435" lon="5.42583">
        <ele>197.21</ele>
        <time>2013-02-21T15:26:43Z</time>
      </trkpt>
      <trkpt lat="46.71434" lon="5.42584">
        <ele>197.69</ele>
        <time>2013-02-21T15:27:10Z</time>
      </trkpt>
      <trkpt lat="46.71435" lon="5.42582">
        <ele>196.73</ele>
        <time>2013-02-21T15:27:36Z</time>
      </trkpt>
      <trkpt lat="46.71436" lon="5.42581">
        <ele>196.25</ele>
        <time>2013-02-21T15:28:00Z</time>
      </trkpt>
      <trkpt lat="46.71436" lon="5.4258">
        <ele>196.73</ele>
        <time>2013-02-21T15:28:19Z</time>
      </trkpt>
      <trkpt lat="46.71434" lon="5.42578">
        <ele>197.21</ele>
        <time>2013-02-21T15:28:41Z</time>
      </trkpt>
      <trkpt lat="46.71432" lon="5.42575">
        <ele>197.21</ele>
        <time>2013-02-21T15:28:44Z</time>
      </trkpt>
      <trkpt lat="46.71428" lon="5.42541">
        <ele>196.25</ele>
        <time>2013-02-21T15:29:03Z</time>
      </trkpt>
      <trkpt lat="46.71433" lon="5.42507">
        <ele>193.84</ele>
        <time>2013-02-21T15:29:22Z</time>
      </trkpt>
      <trkpt lat="46.71444" lon="5.42476">
        <ele>194.32</ele>
        <time>2013-02-21T15:29:40Z</time>
      </trkpt>
      <trkpt lat="46.71451" lon="5.42448">
        <ele>190.48</ele>
        <time>2013-02-21T15:30:00Z</time>
      </trkpt>
      <trkpt lat="46.71457" lon="5.42412">
        <ele>187.11</ele>
        <time>2013-02-21T15:30:21Z</time>
      </trkpt>
      <trkpt lat="46.71465" lon="5.42377">
        <ele>187.11</ele>
        <time>2013-02-21T15:30:41Z</time>
      </trkpt>
      <trkpt lat="46.71468" lon="5.42371">
        <ele>189.04</ele>
        <time>2013-02-21T15:30:44Z</time>
      </trkpt>
      <trkpt lat="46.71473" lon="5.42345">
        <ele>188.56</ele>
        <time>2013-02-21T15:31:01Z</time>
      </trkpt>
      <trkpt lat="46.71481" lon="5.42316">
        <ele>187.59</ele>
        <time>2013-02-21T15:31:18Z</time>
      </trkpt>
      <trkpt lat="46.71482" lon="5.423">
        <ele>187.59</ele>
        <time>2013-02-21T15:31:36Z</time>
      </trkpt>
      <trkpt lat="46.71482" lon="5.42298">
        <ele>190</ele>
        <time>2013-02-21T15:32:03Z</time>
      </trkpt>
      <trkpt lat="46.71483" lon="5.42294">
        <ele>192.88</ele>
        <time>2013-02-21T15:32:26Z</time>
      </trkpt>
      <trkpt lat="46.71485" lon="5.42293">
        <ele>191.92</ele>
        <time>2013-02-21T15:32:44Z</time>
      </trkpt>
      <trkpt lat="46.71487" lon="5.42282">
        <ele>193.84</ele>
        <time>2013-02-21T15:33:00Z</time>
      </trkpt>
      <trkpt lat="46.71487" lon="5.42269">
        <ele>194.32</ele>
        <time>2013-02-21T15:33:11Z</time>
      </trkpt>
      <trkpt lat="46.71489" lon="5.42236">
        <ele>197.21</ele>
        <time>2013-02-21T15:33:30Z</time>
      </trkpt>
      <trkpt lat="46.7149" lon="5.4223">
        <ele>197.69</ele>
        <time>2013-02-21T15:33:33Z</time>
      </trkpt>
      <trkpt lat="46.71489" lon="5.42195">
        <ele>199.61</ele>
        <time>2013-02-21T15:33:52Z</time>
      </trkpt>
      <trkpt lat="46.71492" lon="5.42161">
        <ele>199.61</ele>
        <time>2013-02-21T15:34:12Z</time>
      </trkpt>
      <trkpt lat="46.71494" lon="5.42127">
        <ele>201.53</ele>
        <time>2013-02-21T15:34:32Z</time>
      </trkpt>
      <trkpt lat="46.71496" lon="5.42099">
        <ele>201.53</ele>
        <time>2013-02-21T15:34:49Z</time>
      </trkpt>
      <trkpt lat="46.71494" lon="5.42096">
        <ele>201.05</ele>
        <time>2013-02-21T15:35:12Z</time>
      </trkpt>
      <trkpt lat="46.71495" lon="5.42094">
        <ele>201.05</ele>
        <time>2013-02-21T15:35:38Z</time>
      </trkpt>
      <trkpt lat="46.71497" lon="5.42066">
        <ele>202.49</ele>
        <time>2013-02-21T15:35:53Z</time>
      </trkpt>
      <trkpt lat="46.71499" lon="5.42046">
        <ele>202.49</ele>
        <time>2013-02-21T15:36:08Z</time>
      </trkpt>
      <trkpt lat="46.71502" lon="5.42008">
        <ele>199.13</ele>
        <time>2013-02-21T15:36:26Z</time>
      </trkpt>
      <trkpt lat="46.71506" lon="5.41981">
        <ele>195.77</ele>
        <time>2013-02-21T15:36:42Z</time>
      </trkpt>
      <trkpt lat="46.71507" lon="5.41953">
        <ele>195.28</ele>
        <time>2013-02-21T15:36:59Z</time>
      </trkpt>
      <trkpt lat="46.71509" lon="5.41926">
        <ele>198.17</ele>
        <time>2013-02-21T15:37:14Z</time>
      </trkpt>
      <trkpt lat="46.7151" lon="5.419">
        <ele>201.05</ele>
        <time>2013-02-21T15:37:29Z</time>
      </trkpt>
      <trkpt lat="46.71513" lon="5.41872">
        <ele>200.57</ele>
        <time>2013-02-21T15:37:45Z</time>
      </trkpt>
      <trkpt lat="46.71515" lon="5.41847">
        <ele>201.05</ele>
        <time>2013-02-21T15:37:59Z</time>
      </trkpt>
      <trkpt lat="46.71516" lon="5.41823">
        <ele>202.49</ele>
        <time>2013-02-21T15:38:13Z</time>
      </trkpt>
      <trkpt lat="46.71516" lon="5.4181">
        <ele>202.98</ele>
        <time>2013-02-21T15:38:27Z</time>
      </trkpt>
      <trkpt lat="46.71517" lon="5.41782">
        <ele>201.05</ele>
        <time>2013-02-21T15:38:43Z</time>
      </trkpt>
      <trkpt lat="46.71518" lon="5.41756">
        <ele>198.17</ele>
        <time>2013-02-21T15:38:59Z</time>
      </trkpt>
      <trkpt lat="46.7152" lon="5.41727">
        <ele>197.69</ele>
        <time>2013-02-21T15:39:16Z</time>
      </trkpt>
      <trkpt lat="46.71522" lon="5.41698">
        <ele>197.21</ele>
        <time>2013-02-21T15:39:34Z</time>
      </trkpt>
      <trkpt lat="46.71524" lon="5.41667">
        <ele>196.73</ele>
        <time>2013-02-21T15:39:53Z</time>
      </trkpt>
      <trkpt lat="46.71526" lon="5.41636">
        <ele>196.25</ele>
        <time>2013-02-21T15:40:10Z</time>
      </trkpt>
      <trkpt lat="46.71528" lon="5.41609">
        <ele>194.8</ele>
        <time>2013-02-21T15:40:27Z</time>
      </trkpt>
      <trkpt lat="46.71531" lon="5.41572">
        <ele>200.57</ele>
        <time>2013-02-21T15:40:45Z</time>
      </trkpt>
      <trkpt lat="46.71533" lon="5.41548">
        <ele>201.05</ele>
        <time>2013-02-21T15:40:59Z</time>
      </trkpt>
      <trkpt lat="46.71534" lon="5.41521">
        <ele>201.53</ele>
        <time>2013-02-21T15:41:15Z</time>
      </trkpt>
      <trkpt lat="46.71534" lon="5.41509">
        <ele>202.01</ele>
        <time>2013-02-21T15:41:22Z</time>
      </trkpt>
      <trkpt lat="46.71539" lon="5.41473">
        <ele>206.34</ele>
        <time>2013-02-21T15:41:38Z</time>
      </trkpt>
      <trkpt lat="46.7154" lon="5.41454">
        <ele>204.9</ele>
        <time>2013-02-21T15:41:51Z</time>
      </trkpt>
      <trkpt lat="46.71541" lon="5.41441">
        <ele>205.38</ele>
        <time>2013-02-21T15:42:00Z</time>
      </trkpt>
      <trkpt lat="46.71553" lon="5.41414">
        <ele>208.26</ele>
        <time>2013-02-21T15:42:17Z</time>
      </trkpt>
      <trkpt lat="46.71571" lon="5.41396">
        <ele>206.82</ele>
        <time>2013-02-21T15:42:35Z</time>
      </trkpt>
      <trkpt lat="46.71582" lon="5.41382">
        <ele>207.3</ele>
        <time>2013-02-21T15:42:47Z</time>
      </trkpt>
      <trkpt lat="46.71592" lon="5.41373">
        <ele>206.34</ele>
        <time>2013-02-21T15:43:05Z</time>
      </trkpt>
      <trkpt lat="46.71602" lon="5.4136">
        <ele>204.9</ele>
        <time>2013-02-21T15:43:19Z</time>
      </trkpt>
      <trkpt lat="46.71615" lon="5.41346">
        <ele>203.94</ele>
        <time>2013-02-21T15:43:36Z</time>
      </trkpt>
      <trkpt lat="46.71639" lon="5.41323">
        <ele>205.38</ele>
        <time>2013-02-21T15:43:55Z</time>
      </trkpt>
      <trkpt lat="46.71656" lon="5.41301">
        <ele>209.7</ele>
        <time>2013-02-21T15:44:13Z</time>
      </trkpt>
      <trkpt lat="46.71673" lon="5.41284">
        <ele>209.22</ele>
        <time>2013-02-21T15:44:31Z</time>
      </trkpt>
      <trkpt lat="46.71689" lon="5.41262">
        <ele>205.86</ele>
        <time>2013-02-21T15:44:49Z</time>
      </trkpt>
      <trkpt lat="46.71703" lon="5.41241">
        <ele>207.3</ele>
        <time>2013-02-21T15:45:06Z</time>
      </trkpt>
      <trkpt lat="46.71719" lon="5.41223">
        <ele>207.3</ele>
        <time>2013-02-21T15:45:24Z</time>
      </trkpt>
      <trkpt lat="46.71728" lon="5.41212">
        <ele>207.78</ele>
        <time>2013-02-21T15:45:38Z</time>
      </trkpt>
      <trkpt lat="46.71745" lon="5.41191">
        <ele>207.78</ele>
        <time>2013-02-21T15:45:53Z</time>
      </trkpt>
      <trkpt lat="46.71759" lon="5.41175">
        <ele>207.3</ele>
        <time>2013-02-21T15:46:09Z</time>
      </trkpt>
      <trkpt lat="46.71777" lon="5.41153">
        <ele>208.26</ele>
        <time>2013-02-21T15:46:28Z</time>
      </trkpt>
      <trkpt lat="46.71792" lon="5.41134">
        <ele>207.78</ele>
        <time>2013-02-21T15:46:43Z</time>
      </trkpt>
      <trkpt lat="46.71797" lon="5.4113">
        <ele>207.78</ele>
        <time>2013-02-21T15:46:56Z</time>
      </trkpt>
      <trkpt lat="46.71808" lon="5.41114">
        <ele>207.3</ele>
        <time>2013-02-21T15:47:14Z</time>
      </trkpt>
      <trkpt lat="46.71821" lon="5.41097">
        <ele>205.38</ele>
        <time>2013-02-21T15:47:27Z</time>
      </trkpt>
      <trkpt lat="46.71837" lon="5.41079">
        <ele>204.42</ele>
        <time>2013-02-21T15:47:44Z</time>
      </trkpt>
      <trkpt lat="46.71838" lon="5.41078">
        <ele>204.9</ele>
        <time>2013-02-21T15:47:45Z</time>
      </trkpt>
      <trkpt lat="46.71855" lon="5.41059">
        <ele>203.46</ele>
        <time>2013-02-21T15:48:02Z</time>
      </trkpt>
      <trkpt lat="46.71871" lon="5.41041">
        <ele>201.53</ele>
        <time>2013-02-21T15:48:19Z</time>
      </trkpt>
      <trkpt lat="46.7188" lon="5.41012">
        <ele>200.09</ele>
        <time>2013-02-21T15:48:38Z</time>
      </trkpt>
      <trkpt lat="46.71878" lon="5.41003">
        <ele>201.53</ele>
        <time>2013-02-21T15:48:54Z</time>
      </trkpt>
      <trkpt lat="46.71871" lon="5.40979">
        <ele>199.61</ele>
        <time>2013-02-21T15:49:11Z</time>
      </trkpt>
      <trkpt lat="46.71866" lon="5.4097">
        <ele>200.57</ele>
        <time>2013-02-21T15:49:31Z</time>
      </trkpt>
      <trkpt lat="46.71868" lon="5.4097">
        <ele>200.09</ele>
        <time>2013-02-21T15:49:54Z</time>
      </trkpt>
      <trkpt lat="46.71869" lon="5.4097">
        <ele>199.13</ele>
        <time>2013-02-21T15:50:15Z</time>
      </trkpt>
    </trkseg>
  </trk>
</gpx>